createdAt,value
2023-04-23T00:00:13.908Z,2.15
2023-04-23T00:02:45.361Z,2.42
2023-04-23T00:05:16.117Z,2.00
2023-04-23T00:07:44.883Z,1.85
2023-04-23T00:10:14.069Z,1.98
2023-04-23T00:12:43.945Z,2.10
2023-04-23T00:15:15.505Z,2.17
2023-04-23T00:17:43.650Z,1.77
2023-04-23T00:20:12.013Z,2.10
2023-04-23T00:22:40.455Z,2.20
2023-04-23T00:25:09.337Z,2.55
2023-04-23T00:27:37.481Z,2.33
2023-04-23T00:30:06.119Z,2.38
2023-04-23T00:32:35.788Z,2.10
2023-04-23T00:35:05.815Z,2.22
2023-04-23T00:37:34.329Z,2.38
2023-04-23T00:40:02.440Z,2.15
2023-04-23T00:42:31.304Z,2.33
2023-04-23T00:45:01.660Z,2.30
2023-04-23T00:47:31.219Z,1.92
2023-04-23T00:50:01.283Z,2.17
2023-04-23T00:52:29.659Z,1.77
2023-04-23T00:54:58.080Z,2.22
2023-04-23T00:57:27.105Z,2.03
2023-04-23T00:59:56.934Z,2.50
2023-04-23T01:02:26.613Z,2.28
2023-04-23T01:04:56.291Z,2.00
2023-04-23T01:07:26.523Z,2.20
2023-04-23T01:09:54.925Z,2.50
2023-04-23T01:12:23.472Z,1.85
2023-04-23T01:14:52.318Z,2.40
2023-04-23T01:17:20.816Z,2.42
2023-04-23T01:19:49.338Z,2.00
2023-04-23T01:22:18.828Z,2.40
2023-04-23T01:24:48.096Z,1.63
2023-04-23T01:27:16.326Z,2.25
2023-04-23T01:29:44.990Z,2.13
2023-04-23T01:32:13.339Z,1.80
2023-04-23T01:34:43.641Z,1.67
2023-04-23T01:37:12.685Z,1.85
2023-04-23T01:39:42.455Z,2.20
2023-04-23T01:42:11.190Z,2.33
2023-04-23T01:44:39.753Z,1.85
2023-04-23T01:47:08.073Z,1.70
2023-04-23T01:49:36.251Z,2.13
2023-04-23T01:52:04.583Z,1.88
2023-04-23T01:54:32.646Z,2.42
2023-04-23T01:57:02.998Z,2.25
2023-04-23T01:59:31.087Z,2.78
2023-04-23T02:01:59.289Z,2.50
2023-04-23T02:04:28.355Z,2.13
2023-04-23T02:06:57.124Z,2.00
2023-04-23T02:09:25.785Z,2.00
2023-04-23T02:11:54.208Z,2.30
2023-04-23T02:14:23.701Z,2.40
2023-04-23T02:16:52.238Z,2.58
2023-04-23T02:19:20.643Z,2.25
2023-04-23T02:21:48.775Z,2.42
2023-04-23T02:24:16.917Z,2.63
2023-04-23T02:26:45.480Z,2.35
2023-04-23T02:29:13.547Z,2.38
2023-04-23T02:31:43.092Z,2.25
2023-04-23T02:34:11.265Z,2.20
2023-04-23T02:36:39.444Z,2.53
2023-04-23T02:39:07.672Z,2.55
2023-04-23T02:41:36.202Z,2.80
2023-04-23T02:44:04.332Z,2.50
2023-04-23T02:46:32.776Z,2.50
2023-04-23T02:49:02.560Z,2.70
2023-04-23T02:51:31.550Z,2.65
2023-04-23T02:53:59.842Z,2.40
2023-04-23T02:56:28.024Z,3.05
2023-04-23T02:58:56.321Z,3.30
2023-04-23T03:01:24.565Z,2.85
2023-04-23T03:03:53.266Z,3.05
2023-04-23T03:06:23.305Z,2.40
2023-04-23T03:08:51.733Z,3.40
2023-04-23T03:11:20.208Z,2.67
2023-04-23T03:13:48.621Z,3.10
2023-04-23T03:16:16.918Z,3.72
2023-04-23T03:18:45.392Z,3.13
2023-04-23T03:21:13.479Z,3.50
2023-04-23T03:23:43.242Z,3.40
2023-04-23T03:26:11.295Z,3.75
2023-04-23T03:28:39.457Z,4.07
2023-04-23T03:31:08.011Z,4.43
2023-04-23T03:33:36.744Z,4.35
2023-04-23T03:36:05.541Z,4.03
2023-04-23T03:38:33.975Z,3.47
2023-04-23T03:41:03.430Z,5.55
2023-04-23T03:43:31.930Z,6.75
2023-04-23T03:46:00.099Z,7.97
2023-04-23T03:48:28.297Z,8.15
2023-04-23T03:50:56.456Z,7.20
2023-04-23T03:53:24.556Z,8.00
2023-04-23T03:55:52.854Z,7.07
2023-04-23T03:58:22.310Z,7.60
2023-04-23T04:00:51.560Z,6.32
2023-04-23T04:03:19.794Z,8.43
2023-04-23T04:05:48.171Z,7.60
2023-04-23T04:08:16.303Z,8.25
2023-04-23T04:10:44.439Z,8.45
2023-04-23T04:13:12.573Z,8.90
2023-04-23T04:15:42.060Z,8.20
2023-04-23T04:18:10.972Z,8.23
2023-04-23T04:20:39.056Z,8.35
2023-04-23T04:23:07.167Z,8.65
2023-04-23T04:25:39.865Z,7.80
2023-04-23T04:28:09.678Z,8.48
2023-04-23T04:30:38.208Z,9.32
2023-04-23T04:33:08.955Z,8.38
2023-04-23T04:35:37.032Z,8.07
2023-04-23T04:38:05.123Z,8.43
2023-04-23T04:40:34.548Z,8.00
2023-04-23T04:43:05.315Z,7.63
2023-04-23T04:45:34.240Z,8.20
2023-04-23T04:48:02.301Z,8.77
2023-04-23T04:50:31.870Z,8.20
2023-04-23T04:52:59.929Z,8.98
2023-04-23T04:55:28.159Z,8.00
2023-04-23T04:57:56.360Z,9.02
2023-04-23T05:00:27.999Z,9.40
2023-04-23T05:02:56.770Z,9.60
2023-04-23T05:05:26.629Z,8.27
2023-04-23T05:07:59.207Z,9.63
2023-04-23T05:10:27.361Z,9.55
2023-04-23T05:12:55.483Z,9.93
2023-04-23T05:15:23.574Z,9.80
2023-04-23T05:17:53.737Z,9.25
2023-04-23T05:20:22.813Z,9.48
2023-04-23T05:22:50.931Z,9.43
2023-04-23T05:25:20.514Z,9.02
2023-04-23T05:27:48.591Z,8.68
2023-04-23T05:30:17.145Z,10.23
2023-04-23T05:32:45.922Z,9.18
2023-04-23T05:35:14.063Z,9.38
2023-04-23T05:37:42.601Z,9.77
2023-04-23T05:40:11.499Z,11.05
2023-04-23T05:42:41.300Z,10.30
2023-04-23T05:45:10.488Z,9.55
2023-04-23T05:47:38.644Z,11.48
2023-04-23T05:50:08.515Z,10.00
2023-04-23T05:52:37.526Z,11.57
2023-04-23T05:55:07.036Z,10.88
2023-04-23T05:57:35.255Z,9.55
2023-04-23T06:00:06.514Z,11.32
2023-04-23T06:02:34.908Z,10.73
2023-04-23T06:05:03.264Z,11.05
2023-04-23T06:07:31.514Z,10.70
2023-04-23T06:09:59.816Z,10.98
2023-04-23T06:12:28.098Z,11.18
2023-04-23T06:14:56.467Z,11.80
2023-04-23T06:17:25.917Z,11.60
2023-04-23T06:19:54.019Z,13.23
2023-04-23T06:22:22.129Z,11.80
2023-04-23T06:24:50.192Z,12.07
2023-04-23T06:27:18.567Z,12.35
2023-04-23T06:29:46.679Z,12.80
2023-04-23T06:32:14.794Z,14.02
2023-04-23T06:34:59.478Z,12.77
2023-04-23T06:37:30.878Z,13.35
2023-04-23T06:40:00.229Z,13.07
2023-04-23T06:42:28.751Z,11.35
2023-04-23T06:44:56.881Z,12.20
2023-04-23T06:47:25.012Z,13.35
2023-04-23T06:49:54.494Z,13.52
2023-04-23T06:52:22.818Z,11.63
2023-04-23T06:54:51.328Z,10.90
2023-04-23T06:57:19.517Z,10.93
2023-04-23T06:59:47.924Z,10.23
2023-04-23T07:02:16.063Z,10.77
2023-04-23T07:04:44.541Z,10.23
2023-04-23T07:07:14.232Z,10.50
2023-04-23T07:09:42.584Z,9.77
2023-04-23T07:12:11.272Z,9.38
2023-04-23T07:14:39.537Z,9.82
2023-04-23T07:17:08.053Z,9.00
2023-04-23T07:19:36.426Z,10.35
2023-04-23T07:22:04.664Z,9.75
2023-04-23T07:24:34.510Z,10.18
2023-04-23T07:27:03.185Z,10.65
2023-04-23T07:29:31.396Z,8.35
2023-04-23T07:31:59.867Z,9.35
2023-04-23T07:34:27.996Z,9.48
2023-04-23T07:36:57.377Z,9.32
2023-04-23T07:39:25.498Z,9.10
2023-04-23T07:41:55.400Z,9.95
2023-04-23T07:44:23.512Z,9.88
2023-04-23T07:46:52.389Z,9.88
2023-04-23T07:49:20.542Z,9.35
2023-04-23T07:51:49.516Z,9.60
2023-04-23T07:54:17.896Z,9.73
2023-04-23T07:56:46.274Z,8.63
2023-04-23T07:59:15.956Z,8.88
2023-04-23T08:01:44.406Z,9.43
2023-04-23T08:04:14.191Z,8.68
2023-04-23T08:06:42.534Z,7.57
2023-04-23T08:09:10.703Z,7.25
2023-04-23T08:11:38.777Z,7.07
2023-04-23T08:14:06.893Z,7.40
2023-04-23T08:16:38.723Z,6.88
2023-04-23T08:19:07.929Z,5.78
2023-04-23T08:21:36.215Z,6.15
2023-04-23T08:24:05.669Z,5.80
2023-04-23T08:26:33.756Z,5.30
2023-04-23T08:29:03.032Z,5.72
2023-04-23T08:31:31.191Z,4.45
2023-04-23T08:34:01.292Z,6.32
2023-04-23T08:36:29.622Z,5.20
2023-04-23T08:38:58.100Z,4.97
2023-04-23T08:41:32.038Z,4.60
2023-04-23T08:44:08.845Z,4.18
2023-04-23T08:46:38.801Z,4.78
2023-04-23T08:49:09.566Z,4.68
2023-04-23T08:51:43.804Z,4.75
2023-04-23T08:54:19.732Z,4.35
2023-04-23T08:56:48.846Z,4.97
2023-04-23T08:59:18.309Z,4.72
2023-04-23T09:01:47.080Z,4.60
2023-04-23T09:04:17.148Z,3.80
2023-04-23T09:06:45.792Z,3.80
2023-04-23T09:09:17.453Z,3.67
2023-04-23T09:11:46.206Z,3.50
2023-04-23T09:14:15.558Z,4.40
2023-04-23T09:16:44.511Z,3.05
2023-04-23T09:19:13.170Z,3.15
2023-04-23T09:21:43.421Z,3.95
2023-04-23T09:24:12.637Z,4.18
2023-04-23T09:26:46.801Z,3.92
2023-04-23T09:29:19.098Z,5.32
2023-04-23T09:31:49.441Z,6.03
2023-04-23T09:34:18.234Z,4.03
2023-04-23T09:36:50.442Z,4.20
2023-04-23T09:39:20.303Z,4.68
2023-04-23T09:41:48.598Z,4.68
2023-04-23T09:44:19.757Z,4.55
2023-04-23T09:46:47.854Z,3.88
2023-04-23T09:49:17.083Z,4.38
2023-04-23T09:51:48.125Z,6.07
2023-04-23T09:54:18.986Z,4.85
2023-04-23T09:56:51.576Z,6.43
2023-04-23T09:59:46.258Z,5.82
2023-04-23T10:02:13.133Z,5.30
2023-04-23T10:04:42.222Z,4.90
2023-04-23T10:07:18.762Z,6.15
2023-04-23T10:09:49.297Z,5.88
2023-04-23T10:14:54.168Z,6.40
2023-04-23T10:17:22.409Z,4.80
2023-04-23T10:19:52.289Z,4.70
2023-04-23T10:22:23.849Z,4.53
2023-04-23T10:24:56.664Z,4.63
2023-04-23T10:27:40.219Z,4.90
2023-04-23T10:30:17.505Z,5.47
2023-04-23T10:32:46.478Z,5.22
2023-04-23T10:35:14.643Z,4.97
2023-04-23T10:37:46.511Z,5.70
2023-04-23T10:40:16.068Z,5.60
2023-04-23T10:42:45.669Z,5.45
2023-04-23T10:45:24.146Z,4.88
2023-04-23T10:47:55.115Z,3.38
2023-04-23T10:50:25.530Z,3.03
2023-04-23T10:52:57.628Z,4.78
2023-04-23T10:55:28.270Z,4.53
2023-04-23T10:58:03.362Z,3.67
2023-04-23T11:00:46.531Z,3.75
2023-04-23T11:03:43.364Z,3.40
2023-04-23T11:06:15.679Z,3.25
2023-04-23T11:08:55.253Z,3.95
2023-04-23T11:11:39.548Z,3.55
2023-04-23T11:14:14.548Z,3.28
2023-04-23T11:16:42.835Z,2.75
2023-04-23T11:19:13.046Z,3.10
2023-04-23T11:22:03.781Z,3.20
2023-04-23T11:24:37.465Z,3.17
2023-04-23T11:27:08.184Z,3.15
2023-04-23T11:29:37.621Z,2.90
2023-04-23T11:32:10.939Z,3.35
2023-04-23T11:34:41.307Z,3.38
2023-04-23T11:37:11.471Z,3.65
2023-04-23T11:39:42.300Z,3.80
2023-04-23T11:42:11.645Z,3.80
2023-04-23T11:44:41.569Z,3.65
2023-04-23T11:47:11.449Z,2.78
2023-04-23T11:49:40.451Z,2.63
2023-04-23T11:52:08.880Z,2.70
2023-04-23T11:54:37.305Z,2.70
2023-04-23T11:57:06.961Z,2.33
2023-04-23T11:59:35.220Z,2.72
2023-04-23T12:02:03.825Z,2.80
2023-04-23T12:04:33.086Z,3.20
2023-04-23T12:07:04.322Z,2.75
2023-04-23T12:09:36.705Z,3.08
2023-04-23T12:12:06.542Z,2.75
2023-04-23T12:14:35.153Z,2.97
2023-04-23T12:17:11.679Z,2.63
2023-04-23T12:19:40.553Z,3.00
2023-04-23T12:22:09.330Z,3.65
2023-04-23T12:24:48.487Z,3.30
2023-04-23T12:27:22.105Z,3.15
2023-04-23T12:29:51.141Z,3.20
2023-04-23T12:32:22.865Z,3.25
2023-04-23T12:34:54.872Z,3.72
2023-04-23T12:37:26.034Z,3.40
2023-04-23T12:39:56.931Z,2.95
2023-04-23T12:42:26.800Z,3.20
2023-04-23T12:44:56.123Z,3.20
2023-04-23T12:47:24.387Z,2.55
2023-04-23T12:49:55.834Z,2.22
2023-04-23T12:52:23.975Z,2.97
2023-04-23T12:54:56.296Z,3.13
2023-04-23T12:57:27.286Z,2.83
2023-04-23T12:59:56.515Z,3.30
2023-04-23T13:02:26.446Z,2.63
2023-04-23T13:05:00.778Z,2.42
2023-04-23T13:07:29.588Z,2.10
2023-04-23T13:09:59.532Z,2.45
2023-04-23T13:12:29.190Z,2.53
2023-04-23T13:14:58.347Z,2.85
2023-04-23T13:17:26.710Z,2.90
2023-04-23T13:19:55.919Z,3.15
2023-04-23T13:22:28.420Z,2.75
2023-04-23T13:24:57.333Z,2.90
2023-04-23T13:27:26.229Z,2.90
2023-04-23T13:29:56.049Z,3.22
2023-04-23T13:32:27.293Z,2.55
2023-04-23T13:34:55.708Z,2.60
2023-04-23T13:37:24.590Z,2.13
2023-04-23T13:39:52.798Z,2.47
2023-04-23T13:42:21.256Z,3.08
2023-04-23T13:44:49.687Z,2.97
2023-04-23T13:47:19.312Z,2.58
2023-04-23T13:49:47.415Z,2.55
2023-04-23T13:52:15.639Z,2.58
2023-04-23T13:54:43.762Z,2.45
2023-04-23T13:57:11.867Z,2.20
2023-04-23T13:59:40.237Z,2.67
2023-04-23T14:02:08.457Z,2.78
2023-04-23T14:04:40.002Z,2.60
2023-04-23T14:07:08.161Z,1.98
2023-04-23T14:09:36.255Z,1.92
2023-04-23T14:12:05.050Z,2.22
2023-04-23T14:14:33.154Z,1.80
2023-04-23T14:17:01.311Z,1.63
2023-04-23T14:19:30.468Z,1.70
2023-04-23T14:22:00.215Z,2.28
2023-04-23T14:24:30.187Z,2.05
2023-04-23T14:26:58.642Z,1.88
2023-04-23T14:29:35.862Z,2.20
2023-04-23T14:32:04.456Z,1.20
2023-04-23T14:34:32.973Z,1.90
2023-04-23T14:37:02.810Z,1.90
2023-04-23T14:39:30.881Z,1.60
2023-04-23T14:41:59.239Z,1.70
2023-04-23T14:44:27.404Z,1.80
2023-04-23T14:46:55.735Z,1.80
2023-04-23T14:49:24.183Z,1.65
2023-04-23T14:51:54.622Z,1.90
2023-04-23T14:54:24.362Z,1.65
2023-04-23T14:56:52.970Z,1.90
2023-04-23T14:59:21.844Z,1.75
2023-04-23T15:01:50.061Z,1.95
2023-04-23T15:04:18.311Z,1.70
2023-04-23T15:06:46.418Z,1.55
2023-04-23T15:09:14.533Z,1.92
2023-04-23T15:11:44.274Z,1.90
2023-04-23T15:14:24.413Z,1.50
2023-04-23T15:16:52.803Z,1.60
2023-04-23T15:19:20.940Z,1.60
2023-04-23T15:21:49.249Z,1.30
2023-04-23T15:24:18.116Z,2.22
2023-04-23T15:26:48.650Z,2.17
2023-04-23T15:29:17.320Z,1.65
2023-04-23T15:31:45.614Z,1.83
2023-04-23T15:34:14.073Z,1.60
2023-04-23T15:36:42.440Z,1.83
2023-04-23T15:39:11.189Z,1.75
2023-04-23T15:41:41.232Z,1.60
2023-04-23T15:44:14.545Z,1.60
2023-04-23T15:46:42.931Z,1.60
2023-04-23T15:49:11.068Z,1.75
2023-04-23T15:51:39.318Z,1.60
2023-04-23T15:54:08.870Z,1.55
2023-04-23T15:56:37.853Z,1.42
2023-04-23T15:59:06.258Z,1.42
2023-04-23T16:01:36.364Z,1.75
2023-04-23T16:06:35.714Z,1.55
2023-04-23T16:09:07.142Z,1.42
2023-04-23T16:11:36.023Z,1.50
2023-04-23T16:14:04.639Z,1.58
2023-04-23T16:16:32.928Z,1.95
2023-04-23T16:19:03.317Z,1.88
2023-04-23T16:21:32.165Z,1.50
2023-04-23T16:24:00.492Z,1.60
2023-04-23T16:26:29.404Z,1.67
2023-04-23T16:31:29.598Z,1.50
2023-04-23T16:33:57.714Z,1.60
2023-04-23T16:36:28.171Z,1.77
2023-04-23T16:38:56.448Z,1.83
2023-04-23T16:41:24.549Z,1.40
2023-04-23T16:43:52.958Z,1.58
2023-04-23T16:46:21.236Z,1.35
2023-04-23T16:48:49.400Z,1.63
2023-04-23T16:51:17.521Z,1.33
2023-04-23T16:53:47.014Z,1.50
2023-04-23T16:56:15.177Z,1.58
2023-04-23T16:58:43.543Z,1.65
2023-04-23T17:01:11.671Z,1.73
2023-04-23T17:03:40.229Z,1.55
2023-04-23T17:06:12.908Z,1.50
2023-04-23T17:08:41.461Z,1.65
2023-04-23T17:11:10.936Z,1.55
2023-04-23T17:13:39.530Z,1.38
2023-04-23T17:16:07.685Z,1.60
2023-04-23T17:18:35.881Z,1.75
2023-04-23T17:21:04.432Z,1.70
2023-04-23T17:23:32.509Z,2.10
2023-04-23T17:26:00.595Z,2.15
2023-04-23T17:28:30.218Z,2.38
2023-04-23T17:30:58.324Z,1.75
2023-04-23T17:33:26.566Z,2.67
2023-04-23T17:35:55.304Z,2.50
2023-04-23T17:38:24.953Z,3.20
2023-04-23T17:40:54.001Z,2.60
2023-04-23T17:43:22.438Z,2.83
2023-04-23T17:45:52.010Z,1.83
2023-04-23T17:48:22.935Z,1.80
2023-04-23T17:50:51.373Z,1.70
2023-04-23T17:53:19.755Z,1.50
2023-04-23T17:55:47.870Z,1.52
2023-04-23T17:58:16.560Z,1.27
2023-04-23T18:00:44.827Z,1.42
2023-04-23T18:03:17.173Z,1.40
2023-04-23T18:05:46.105Z,1.40
2023-04-23T18:08:16.276Z,1.70
2023-04-23T18:10:45.845Z,1.60
2023-04-23T18:13:14.220Z,1.60
2023-04-23T18:15:42.682Z,1.80
2023-04-23T18:18:10.986Z,1.58
2023-04-23T18:20:40.546Z,1.63
2023-04-23T18:23:09.679Z,1.17
2023-04-23T18:25:38.018Z,1.52
2023-04-23T18:28:06.100Z,1.67
2023-04-23T18:30:34.240Z,1.58
2023-04-23T18:33:08.920Z,1.55
2023-04-23T18:35:37.378Z,1.52
2023-04-23T18:38:11.850Z,1.60
2023-04-23T18:40:39.964Z,1.65
2023-04-23T18:43:08.046Z,1.88
2023-04-23T18:45:36.183Z,1.50
2023-04-23T18:48:13.886Z,1.30
2023-04-23T18:50:45.209Z,1.83
2023-04-23T18:53:14.695Z,1.48
2023-04-23T18:55:42.822Z,1.88
2023-04-23T18:58:10.952Z,1.90
2023-04-23T19:00:39.355Z,1.92
2023-04-23T19:03:19.547Z,1.70
2023-04-23T19:05:52.879Z,1.80
2023-04-23T19:08:28.804Z,1.63
2023-04-23T19:10:57.371Z,2.00
2023-04-23T19:13:25.540Z,1.77
2023-04-23T19:15:53.806Z,1.70
2023-04-23T19:18:22.782Z,2.00
2023-04-23T19:20:51.104Z,1.98
2023-04-23T19:23:19.683Z,1.70
2023-04-23T19:25:49.223Z,1.77
2023-04-23T19:28:17.428Z,2.17
2023-04-23T19:30:45.610Z,2.17
2023-04-23T19:33:13.779Z,1.92
2023-04-23T19:35:41.894Z,1.73
2023-04-23T19:38:10.178Z,1.92
2023-04-23T19:40:38.863Z,1.88
2023-04-23T19:43:08.806Z,1.88
2023-04-23T19:45:38.553Z,1.70
2023-04-23T19:48:08.206Z,1.70
2023-04-23T19:50:36.830Z,2.00
2023-04-23T19:53:06.003Z,2.13
2023-04-23T19:55:34.127Z,2.20
2023-04-23T19:58:06.221Z,2.13
2023-04-23T20:00:40.361Z,2.10
2023-04-23T20:03:09.814Z,1.70
2023-04-23T20:05:38.032Z,2.00
2023-04-23T20:08:14.557Z,1.77
2023-04-23T20:10:43.321Z,1.90
2023-04-23T20:13:11.507Z,2.40
2023-04-23T20:15:41.098Z,1.83
2023-04-23T20:18:09.610Z,2.03
2023-04-23T20:20:39.883Z,2.20
2023-04-23T20:23:08.094Z,1.90
2023-04-23T20:25:37.919Z,2.20
2023-04-23T20:28:06.754Z,1.70
2023-04-23T20:30:34.896Z,1.70
2023-04-23T20:33:04.910Z,1.85
2023-04-23T20:35:33.733Z,2.15
2023-04-23T20:38:02.108Z,1.80
2023-04-23T20:40:34.782Z,1.70
2023-04-23T20:43:04.534Z,1.88
2023-04-23T20:45:34.507Z,1.45
2023-04-23T20:48:04.052Z,1.80
2023-04-23T20:50:33.214Z,1.60
2023-04-23T20:53:01.372Z,1.85
2023-04-23T20:55:29.537Z,1.85
2023-04-23T20:57:57.650Z,2.10
2023-04-23T21:00:25.747Z,1.63
2023-04-23T21:02:54.014Z,1.90
2023-04-23T21:05:23.831Z,1.55
2023-04-23T21:07:52.200Z,1.65
2023-04-23T21:10:20.614Z,1.50
2023-04-23T21:12:48.798Z,1.52
2023-04-23T21:15:17.968Z,1.63
2023-04-23T21:17:46.461Z,1.58
2023-04-23T21:20:14.644Z,1.80
2023-04-23T21:22:44.141Z,1.67
2023-04-23T21:25:12.259Z,1.60
2023-04-23T21:27:42.667Z,1.88
2023-04-23T21:30:17.451Z,1.83
2023-04-23T21:32:45.908Z,1.42
2023-04-23T21:35:14.028Z,1.80
2023-04-23T21:37:43.760Z,1.75
2023-04-23T21:40:11.978Z,1.73
2023-04-23T21:42:40.436Z,1.38
2023-04-23T21:45:09.601Z,1.55
2023-04-23T21:47:38.114Z,1.85
2023-04-23T21:50:08.601Z,1.40
2023-04-23T21:52:37.132Z,1.42
2023-04-23T21:55:07.339Z,1.40
2023-04-23T21:57:35.884Z,2.00
2023-04-23T22:00:05.614Z,1.50
2023-04-23T22:02:33.931Z,1.38
2023-04-23T22:05:02.123Z,1.67
2023-04-23T22:07:30.279Z,1.67
2023-04-23T22:10:00.518Z,1.63
2023-04-23T22:12:29.997Z,1.58
2023-04-23T22:14:58.109Z,1.45
2023-04-23T22:17:30.409Z,1.50
2023-04-23T22:19:58.823Z,1.67
2023-04-23T22:22:26.992Z,1.60
2023-04-23T22:24:55.087Z,1.63
2023-04-23T22:27:23.222Z,1.65
2023-04-23T22:29:53.088Z,1.75
2023-04-23T22:32:21.190Z,1.70
2023-04-23T22:34:49.548Z,1.60
2023-04-23T22:37:17.688Z,1.40
2023-04-23T22:39:46.327Z,1.63
2023-04-23T22:42:15.924Z,1.23
2023-04-23T22:44:44.038Z,1.20
2023-04-23T22:47:14.016Z,1.10
2023-04-23T22:49:42.438Z,1.25
2023-04-23T22:52:11.878Z,1.40
2023-04-23T22:54:39.944Z,2.10
2023-04-23T22:57:08.159Z,1.83
2023-04-23T22:59:36.422Z,1.42
2023-04-23T23:02:04.551Z,1.58
2023-04-23T23:04:37.719Z,1.85
2023-04-23T23:07:06.153Z,1.70
2023-04-23T23:09:34.849Z,1.58
2023-04-23T23:12:03.990Z,1.40
2023-04-23T23:14:33.383Z,1.58
2023-04-23T23:17:01.918Z,1.73
2023-04-23T23:19:31.010Z,1.40
2023-04-23T23:22:00.836Z,1.50
2023-04-23T23:24:28.998Z,1.48
2023-04-23T23:26:57.072Z,1.92
2023-04-23T23:29:25.179Z,1.20
2023-04-23T23:31:53.269Z,1.70
2023-04-23T23:34:21.435Z,1.50
2023-04-23T23:36:51.343Z,1.40
2023-04-23T23:39:20.790Z,1.48
2023-04-23T23:41:49.248Z,1.45
2023-04-23T23:44:17.789Z,1.70
2023-04-23T23:46:46.311Z,1.30
2023-04-23T23:49:14.517Z,1.52
2023-04-23T23:51:42.934Z,1.42
2023-04-23T23:54:11.084Z,1.30
2023-04-23T23:56:41.026Z,1.20
2023-04-23T23:59:09.129Z,1.50
